sensor_id;sensor_type;location;lat;lon;timestamp;temperature;humidity
29007;DHT22;16104;48.642;9.008;2023-12-20T00:03:12;8.80;64.70
29007;DHT22;16104;48.642;9.008;2023-12-20T00:08:07;8.80;64.70
29007;DHT22;16104;48.642;9.008;2023-12-20T00:13:03;8.80;64.60
29007;DHT22;16104;48.642;9.008;2023-12-20T00:17:58;8.80;64.70
29007;DHT22;16104;48.642;9.008;2023-12-20T00:22:57;8.90;64.70
29007;DHT22;16104;48.642;9.008;2023-12-20T00:27:53;8.90;65.00
29007;DHT22;16104;48.642;9.008;2023-12-20T00:32:48;8.90;64.90
29007;DHT22;16104;48.642;9.008;2023-12-20T00:37:44;8.90;65.10
29007;DHT22;16104;48.642;9.008;2023-12-20T00:42:40;8.90;65.20
29007;DHT22;16104;48.642;9.008;2023-12-20T00:47:35;8.90;65.40
29007;DHT22;16104;48.642;9.008;2023-12-20T00:52:31;8.90;65.70
29007;DHT22;16104;48.642;9.008;2023-12-20T00:57:26;8.90;65.90
29007;DHT22;16104;48.642;9.008;2023-12-20T05:01:34;8.30;68.90
29007;DHT22;16104;48.642;9.008;2023-12-20T05:06:29;8.20;68.10
29007;DHT22;16104;48.642;9.008;2023-12-20T05:11:25;8.20;68.00
29007;DHT22;16104;48.642;9.008;2023-12-20T05:16:20;8.20;68.10
29007;DHT22;16104;48.642;9.008;2023-12-20T05:21:16;8.20;68.00
29007;DHT22;16104;48.642;9.008;2023-12-20T05:26:11;8.20;68.00
29007;DHT22;16104;48.642;9.008;2023-12-20T05:31:07;8.20;68.10
29007;DHT22;16104;48.642;9.008;2023-12-20T05:36:03;8.20;68.10
29007;DHT22;16104;48.642;9.008;2023-12-20T05:40:58;8.20;68.10
29007;DHT22;16104;48.642;9.008;2023-12-20T05:45:54;8.20;68.10
29007;DHT22;16104;48.642;9.008;2023-12-20T05:50:49;8.20;68.40
29007;DHT22;16104;48.642;9.008;2023-12-20T05:55:44;8.20;68.50
29007;DHT22;16104;48.642;9.008;2023-12-20T06:00:40;8.20;68.70
29007;DHT22;16104;48.642;9.008;2023-12-20T06:05:35;8.20;68.90
29007;DHT22;16104;48.642;9.008;2023-12-20T06:10:31;8.10;68.90
29007;DHT22;16104;48.642;9.008;2023-12-20T06:15:26;8.10;69.00
29007;DHT22;16104;48.642;9.008;2023-12-20T06:20:22;8.10;69.10
29007;DHT22;16104;48.642;9.008;2023-12-20T06:25:17;8.10;69.10
29007;DHT22;16104;48.642;9.008;2023-12-20T06:30:13;8.10;69.10
29007;DHT22;16104;48.642;9.008;2023-12-20T06:35:09;8.10;69.10
29007;DHT22;16104;48.642;9.008;2023-12-20T06:40:05;8.20;69.30
29007;DHT22;16104;48.642;9.008;2023-12-20T06:45:01;8.20;69.40
29007;DHT22;16104;48.642;9.008;2023-12-20T06:49:56;8.10;69.40
29007;DHT22;16104;48.642;9.008;2023-12-20T06:54:52;8.10;69.50
29007;DHT22;16104;48.642;9.008;2023-12-20T06:59:47;8.10;69.40
29007;DHT22;16104;48.642;9.008;2023-12-20T07:04:43;8.10;68.80
29007;DHT22;16104;48.642;9.008;2023-12-20T07:09:38;8.20;69.60
29007;DHT22;16104;48.642;9.008;2023-12-20T07:14:34;8.10;69.60
29007;DHT22;16104;48.642;9.008;2023-12-20T07:19:29;8.10;69.60
29007;DHT22;16104;48.642;9.008;2023-12-20T07:24:25;8.10;69.60
29007;DHT22;16104;48.642;9.008;2023-12-20T07:29:22;8.10;69.60
29007;DHT22;16104;48.642;9.008;2023-12-20T07:34:17;8.10;69.60
29007;DHT22;16104;48.642;9.008;2023-12-20T07:39:14;8.20;69.30
29007;DHT22;16104;48.642;9.008;2023-12-20T07:44:09;8.10;69.40
29007;DHT22;16104;48.642;9.008;2023-12-20T07:49:05;8.10;69.30
29007;DHT22;16104;48.642;9.008;2023-12-20T07:54:00;8.10;69.30
29007;DHT22;16104;48.642;9.008;2023-12-20T07:58:56;8.10;69.60
29007;DHT22;16104;48.642;9.008;2023-12-20T08:03:51;8.10;69.80
29007;DHT22;16104;48.642;9.008;2023-12-20T08:08:47;8.10;69.90
29007;DHT22;16104;48.642;9.008;2023-12-20T08:13:43;8.10;70.00
29007;DHT22;16104;48.642;9.008;2023-12-20T08:18:39;8.20;70.30
29007;DHT22;16104;48.642;9.008;2023-12-20T08:23:34;8.20;70.40
29007;DHT22;16104;48.642;9.008;2023-12-20T08:28:30;8.20;70.50
29007;DHT22;16104;48.642;9.008;2023-12-20T08:33:26;8.20;70.60
29007;DHT22;16104;48.642;9.008;2023-12-20T08:38:22;8.20;70.70
29007;DHT22;16104;48.642;9.008;2023-12-20T08:43:17;8.20;70.70
29007;DHT22;16104;48.642;9.008;2023-12-20T08:48:13;8.30;70.80
29007;DHT22;16104;48.642;9.008;2023-12-20T08:53:09;8.30;70.10
29007;DHT22;16104;48.642;9.008;2023-12-20T08:58:04;8.30;69.20
29007;DHT22;16104;48.642;9.008;2023-12-20T09:03:02;8.30;68.60
29007;DHT22;16104;48.642;9.008;2023-12-20T09:07:58;8.20;68.00
29007;DHT22;16104;48.642;9.008;2023-12-20T09:12:54;8.20;67.80
29007;DHT22;16104;48.642;9.008;2023-12-20T09:17:52;8.20;67.50
29007;DHT22;16104;48.642;9.008;2023-12-20T09:22:49;8.20;67.10
29007;DHT22;16104;48.642;9.008;2023-12-20T09:27:44;8.10;66.50
29007;DHT22;16104;48.642;9.008;2023-12-20T09:32:40;8.10;66.20
29007;DHT22;16104;48.642;9.008;2023-12-20T09:37:35;8.10;66.20
29007;DHT22;16104;48.642;9.008;2023-12-20T09:47:39;8.00;65.80
29007;DHT22;16104;48.642;9.008;2023-12-20T09:52:36;8.00;66.20
29007;DHT22;16104;48.642;9.008;2023-12-20T09:57:32;8.10;66.00
29007;DHT22;16104;48.642;9.008;2023-12-20T10:02:28;8.10;65.90
29007;DHT22;16104;48.642;9.008;2023-12-20T10:07:25;8.20;65.60
29007;DHT22;16104;48.642;9.008;2023-12-20T10:12:20;8.20;65.20
29007;DHT22;16104;48.642;9.008;2023-12-20T10:17:16;8.10;64.70
29007;DHT22;16104;48.642;9.008;2023-12-20T10:22:11;8.10;64.80
29007;DHT22;16104;48.642;9.008;2023-12-20T10:27:08;8.20;65.00
29007;DHT22;16104;48.642;9.008;2023-12-20T10:32:33;8.20;64.60
29007;DHT22;16104;48.642;9.008;2023-12-20T10:37:29;8.30;64.10
29007;DHT22;16104;48.642;9.008;2023-12-20T10:42:27;8.40;63.90
29007;DHT22;16104;48.642;9.008;2023-12-20T10:47:25;8.40;63.60
29007;DHT22;16104;48.642;9.008;2023-12-20T10:52:23;8.50;63.10
29007;DHT22;16104;48.642;9.008;2023-12-20T10:57:20;8.50;62.90
29007;DHT22;16104;48.642;9.008;2023-12-20T11:02:17;8.50;62.80
29007;DHT22;16104;48.642;9.008;2023-12-20T11:07:17;8.50;62.60
29007;DHT22;16104;48.642;9.008;2023-12-20T11:12:15;8.50;62.60
29007;DHT22;16104;48.642;9.008;2023-12-20T11:17:12;8.50;62.30
29007;DHT22;16104;48.642;9.008;2023-12-20T11:22:09;8.50;62.00
29007;DHT22;16104;48.642;9.008;2023-12-20T11:27:05;8.50;62.30
29007;DHT22;16104;48.642;9.008;2023-12-20T11:37:31;8.60;61.30
29007;DHT22;16104;48.642;9.008;2023-12-20T11:42:27;8.60;60.50
29007;DHT22;16104;48.642;9.008;2023-12-20T11:47:22;8.60;60.90
29007;DHT22;16104;48.642;9.008;2023-12-20T11:52:18;8.60;60.60
29007;DHT22;16104;48.642;9.008;2023-12-20T11:57:14;8.60;60.20
29007;DHT22;16104;48.642;9.008;2023-12-20T12:02:11;8.50;60.40
29007;DHT22;16104;48.642;9.008;2023-12-20T12:07:07;8.50;60.90
29007;DHT22;16104;48.642;9.008;2023-12-20T12:12:03;8.50;60.70
29007;DHT22;16104;48.642;9.008;2023-12-20T12:16:59;8.50;60.40
29007;DHT22;16104;48.642;9.008;2023-12-20T12:22:14;8.50;60.30
29007;DHT22;16104;48.642;9.008;2023-12-20T12:27:12;8.50;59.90
29007;DHT22;16104;48.642;9.008;2023-12-20T12:32:09;8.40;60.20
29007;DHT22;16104;48.642;9.008;2023-12-20T12:37:04;8.40;60.40
29007;DHT22;16104;48.642;9.008;2023-12-20T12:42:00;8.40;60.40
29007;DHT22;16104;48.642;9.008;2023-12-20T12:46:55;8.40;60.40
29007;DHT22;16104;48.642;9.008;2023-12-20T12:51:52;8.50;60.20
29007;DHT22;16104;48.642;9.008;2023-12-20T12:56:47;8.50;60.10
29007;DHT22;16104;48.642;9.008;2023-12-20T13:01:43;8.50;60.20
29007;DHT22;16104;48.642;9.008;2023-12-20T13:06:38;8.60;60.70
29007;DHT22;16104;48.642;9.008;2023-12-20T13:11:36;8.80;60.20
29007;DHT22;16104;48.642;9.008;2023-12-20T13:16:31;8.80;59.90
29007;DHT22;16104;48.642;9.008;2023-12-20T13:21:27;8.90;59.70
29007;DHT22;16104;48.642;9.008;2023-12-20T13:26:22;8.90;59.80
29007;DHT22;16104;48.642;9.008;2023-12-20T13:31:20;8.90;59.80
29007;DHT22;16104;48.642;9.008;2023-12-20T13:36:15;8.90;59.80
29007;DHT22;16104;48.642;9.008;2023-12-20T13:41:11;8.90;59.50
29007;DHT22;16104;48.642;9.008;2023-12-20T13:46:06;8.90;59.40
29007;DHT22;16104;48.642;9.008;2023-12-20T13:51:02;8.90;59.40
29007;DHT22;16104;48.642;9.008;2023-12-20T13:55:58;8.80;59.60
29007;DHT22;16104;48.642;9.008;2023-12-20T14:00:55;8.80;59.60
29007;DHT22;16104;48.642;9.008;2023-12-20T14:05:50;8.70;59.70
29007;DHT22;16104;48.642;9.008;2023-12-20T14:10:46;8.70;59.70
29007;DHT22;16104;48.642;9.008;2023-12-20T14:15:41;8.70;59.80
29007;DHT22;16104;48.642;9.008;2023-12-20T14:20:37;8.60;59.70
29007;DHT22;16104;48.642;9.008;2023-12-20T14:25:34;8.60;59.90
29007;DHT22;16104;48.642;9.008;2023-12-20T14:30:32;8.50;60.00
29007;DHT22;16104;48.642;9.008;2023-12-20T14:35:27;8.50;60.20
29007;DHT22;16104;48.642;9.008;2023-12-20T14:40:23;8.50;60.50
29007;DHT22;16104;48.642;9.008;2023-12-20T14:45:18;8.40;60.80
29007;DHT22;16104;48.642;9.008;2023-12-20T14:50:14;8.40;61.30
29007;DHT22;16104;48.642;9.008;2023-12-20T14:55:14;8.30;61.70
29007;DHT22;16104;48.642;9.008;2023-12-20T15:00:09;8.20;61.80
29007;DHT22;16104;48.642;9.008;2023-12-20T15:05:05;8.20;62.10
29007;DHT22;16104;48.642;9.008;2023-12-20T15:10:01;8.10;62.30
29007;DHT22;16104;48.642;9.008;2023-12-20T15:14:56;8.00;63.20
29007;DHT22;16104;48.642;9.008;2023-12-20T15:19:52;8.00;62.70
29007;DHT22;16104;48.642;9.008;2023-12-20T15:24:47;7.90;62.90
29007;DHT22;16104;48.642;9.008;2023-12-20T15:29:43;7.90;63.10
29007;DHT22;16104;48.642;9.008;2023-12-20T15:34:39;7.80;63.40
29007;DHT22;16104;48.642;9.008;2023-12-20T15:39:34;7.90;63.70
29007;DHT22;16104;48.642;9.008;2023-12-20T15:44:29;7.80;63.90
29007;DHT22;16104;48.642;9.008;2023-12-20T15:49:25;7.70;64.10
29007;DHT22;16104;48.642;9.008;2023-12-20T15:54:21;7.70;64.30
29007;DHT22;16104;48.642;9.008;2023-12-20T15:59:17;7.60;64.30
29007;DHT22;16104;48.642;9.008;2023-12-20T16:04:13;7.60;64.60
29007;DHT22;16104;48.642;9.008;2023-12-20T16:09:08;7.60;64.70
29007;DHT22;16104;48.642;9.008;2023-12-20T16:14:04;7.50;64.90
29007;DHT22;16104;48.642;9.008;2023-12-20T16:19:00;7.50;65.00
29007;DHT22;16104;48.642;9.008;2023-12-20T16:23:55;7.50;65.20
29007;DHT22;16104;48.642;9.008;2023-12-20T16:28:51;7.40;65.20
29007;DHT22;16104;48.642;9.008;2023-12-20T16:33:47;7.40;65.40
29007;DHT22;16104;48.642;9.008;2023-12-20T16:38:42;7.40;65.40
29007;DHT22;16104;48.642;9.008;2023-12-20T16:43:38;7.30;65.60
29007;DHT22;16104;48.642;9.008;2023-12-20T16:48:33;7.30;65.70
29007;DHT22;16104;48.642;9.008;2023-12-20T16:53:29;7.30;65.70
29007;DHT22;16104;48.642;9.008;2023-12-20T16:58:24;7.30;65.80
29007;DHT22;16104;48.642;9.008;2023-12-20T17:03:20;7.20;65.80
29007;DHT22;16104;48.642;9.008;2023-12-20T17:08:15;7.20;65.90
29007;DHT22;16104;48.642;9.008;2023-12-20T17:13:11;7.20;66.10
29007;DHT22;16104;48.642;9.008;2023-12-20T17:18:06;7.20;66.10
29007;DHT22;16104;48.642;9.008;2023-12-20T17:23:02;7.20;66.20
29007;DHT22;16104;48.642;9.008;2023-12-20T17:27:58;7.20;66.20
29007;DHT22;16104;48.642;9.008;2023-12-20T17:32:53;7.20;66.30
29007;DHT22;16104;48.642;9.008;2023-12-20T17:37:49;7.20;66.30
29007;DHT22;16104;48.642;9.008;2023-12-20T17:42:46;7.10;66.20
29007;DHT22;16104;48.642;9.008;2023-12-20T17:47:42;7.10;66.30
29007;DHT22;16104;48.642;9.008;2023-12-20T17:52:39;7.10;66.30
29007;DHT22;16104;48.642;9.008;2023-12-20T17:57:34;7.10;66.40
29007;DHT22;16104;48.642;9.008;2023-12-20T18:02:30;7.10;66.50
29007;DHT22;16104;48.642;9.008;2023-12-20T18:07:25;7.00;66.50
29007;DHT22;16104;48.642;9.008;2023-12-20T18:12:21;7.00;66.50
29007;DHT22;16104;48.642;9.008;2023-12-20T18:17:16;7.00;66.70
29007;DHT22;16104;48.642;9.008;2023-12-20T18:22:12;7.00;67.80
29007;DHT22;16104;48.642;9.008;2023-12-20T18:27:08;7.00;67.00
29007;DHT22;16104;48.642;9.008;2023-12-20T18:32:04;7.00;67.10
29007;DHT22;16104;48.642;9.008;2023-12-20T18:37:00;6.90;67.10
29007;DHT22;16104;48.642;9.008;2023-12-20T18:41:55;6.90;67.10
29007;DHT22;16104;48.642;9.008;2023-12-20T18:46:51;7.00;67.30
29007;DHT22;16104;48.642;9.008;2023-12-20T18:51:46;7.00;67.10
29007;DHT22;16104;48.642;9.008;2023-12-20T18:56:42;7.00;67.20
29007;DHT22;16104;48.642;9.008;2023-12-20T19:01:38;7.00;67.20
29007;DHT22;16104;48.642;9.008;2023-12-20T19:06:33;7.00;67.30
29007;DHT22;16104;48.642;9.008;2023-12-20T19:11:29;7.00;67.30
29007;DHT22;16104;48.642;9.008;2023-12-20T19:16:24;7.00;67.30
29007;DHT22;16104;48.642;9.008;2023-12-20T19:21:20;7.00;67.30
29007;DHT22;16104;48.642;9.008;2023-12-20T19:26:16;7.00;67.30
29007;DHT22;16104;48.642;9.008;2023-12-20T19:31:12;7.00;67.30
29007;DHT22;16104;48.642;9.008;2023-12-20T19:36:09;7.00;67.20
29007;DHT22;16104;48.642;9.008;2023-12-20T19:41:05;7.00;67.30
29007;DHT22;16104;48.642;9.008;2023-12-20T19:46:00;7.00;67.30
29007;DHT22;16104;48.642;9.008;2023-12-20T19:50:56;7.00;67.40
29007;DHT22;16104;48.642;9.008;2023-12-20T19:55:52;7.00;67.30
29007;DHT22;16104;48.642;9.008;2023-12-20T20:00:47;7.00;67.50
29007;DHT22;16104;48.642;9.008;2023-12-20T20:05:43;7.00;67.40
29007;DHT22;16104;48.642;9.008;2023-12-20T20:10:38;7.00;67.50
29007;DHT22;16104;48.642;9.008;2023-12-20T20:15:34;7.00;67.50
29007;DHT22;16104;48.642;9.008;2023-12-20T20:20:30;7.00;67.70
29007;DHT22;16104;48.642;9.008;2023-12-20T20:25:25;7.00;67.60
29007;DHT22;16104;48.642;9.008;2023-12-20T20:30:21;7.00;67.70
29007;DHT22;16104;48.642;9.008;2023-12-20T20:35:16;7.00;67.60
29007;DHT22;16104;48.642;9.008;2023-12-20T20:40:12;7.00;68.50
29007;DHT22;16104;48.642;9.008;2023-12-20T20:45:13;6.90;67.50
29007;DHT22;16104;48.642;9.008;2023-12-20T20:50:09;6.90;67.60
29007;DHT22;16104;48.642;9.008;2023-12-20T20:55:05;6.90;67.80
29007;DHT22;16104;48.642;9.008;2023-12-20T21:00:01;6.90;67.80
29007;DHT22;16104;48.642;9.008;2023-12-20T21:04:56;6.90;67.80
29007;DHT22;16104;48.642;9.008;2023-12-20T21:09:52;6.90;67.90
29007;DHT22;16104;48.642;9.008;2023-12-20T21:14:47;6.90;67.80
29007;DHT22;16104;48.642;9.008;2023-12-20T21:19:42;6.90;67.90
29007;DHT22;16104;48.642;9.008;2023-12-20T21:24:38;6.90;68.00
29007;DHT22;16104;48.642;9.008;2023-12-20T21:29:34;6.90;68.00
29007;DHT22;16104;48.642;9.008;2023-12-20T21:34:29;6.90;68.00
29007;DHT22;16104;48.642;9.008;2023-12-20T21:39:24;6.90;68.00
29007;DHT22;16104;48.642;9.008;2023-12-20T21:44:22;6.90;68.00
29007;DHT22;16104;48.642;9.008;2023-12-20T21:49:18;6.90;67.90
29007;DHT22;16104;48.642;9.008;2023-12-20T21:54:14;6.90;67.90
29007;DHT22;16104;48.642;9.008;2023-12-20T21:59:09;7.00;68.00
29007;DHT22;16104;48.642;9.008;2023-12-20T22:04:05;7.00;67.90
29007;DHT22;16104;48.642;9.008;2023-12-20T22:09:00;7.00;67.90
29007;DHT22;16104;48.642;9.008;2023-12-20T22:13:56;7.00;68.10
29007;DHT22;16104;48.642;9.008;2023-12-20T22:18:51;7.00;68.20
29007;DHT22;16104;48.642;9.008;2023-12-20T22:23:47;7.00;68.20
29007;DHT22;16104;48.642;9.008;2023-12-20T22:28:43;7.00;68.30
29007;DHT22;16104;48.642;9.008;2023-12-20T22:33:39;7.00;68.40
29007;DHT22;16104;48.642;9.008;2023-12-20T22:38:34;7.10;68.60
29007;DHT22;16104;48.642;9.008;2023-12-20T22:43:30;7.00;68.50
29007;DHT22;16104;48.642;9.008;2023-12-20T22:48:25;7.00;68.60
29007;DHT22;16104;48.642;9.008;2023-12-20T22:53:21;7.10;68.70
29007;DHT22;16104;48.642;9.008;2023-12-20T22:58:16;7.10;68.70
29007;DHT22;16104;48.642;9.008;2023-12-20T23:03:12;7.10;68.70
29007;DHT22;16104;48.642;9.008;2023-12-20T23:08:08;7.20;68.60
29007;DHT22;16104;48.642;9.008;2023-12-20T23:13:05;7.20;68.60
29007;DHT22;16104;48.642;9.008;2023-12-20T23:18:00;7.20;68.40
29007;DHT22;16104;48.642;9.008;2023-12-20T23:22:56;7.20;68.40
29007;DHT22;16104;48.642;9.008;2023-12-20T23:27:51;7.30;68.40
29007;DHT22;16104;48.642;9.008;2023-12-20T23:32:48;7.20;68.20
29007;DHT22;16104;48.642;9.008;2023-12-20T23:37:44;7.30;68.20
29007;DHT22;16104;48.642;9.008;2023-12-20T23:42:40;7.30;68.10
29007;DHT22;16104;48.642;9.008;2023-12-20T23:47:36;7.30;68.10
29007;DHT22;16104;48.642;9.008;2023-12-20T23:52:31;7.30;68.10
29007;DHT22;16104;48.642;9.008;2023-12-20T23:57:27;7.40;68.00
